Latest Coastal Weather Observations for Lady Elliot Island

IDQ60701

Issued at 10:12 am EST Tuesday 27 September 2016 (issued every 10 minutes, with the page automatically refreshed every 10 minutes)

About coastal observations | Map of coastal stations | Coastal observations for QLD | Marine services | Other Formats
Station Details ID: 039059 Name: LADY ELLIOT ISLAND Lat: -24.11 Lon: 152.72 Height: 3.6 m
Data from the previous 72 hours. | See also: Recent months at Lady Elliot Island
Date/Time
EST
Temp
°C
Wind Pressure Rain since
9am
mm
Weather Cloud Vis
km
Sea
Height
m
Swell
Dir  Spd
kts
Gust
kts
hPa Trend Height
m
Period
s
Dir
27/10:00am 23.3 SSW 11 15 1015.6 - 0.0 - - - - - - -
27/09:30am 23.3 SSW 12 17 1016.0 - 0.0 - - - - - - -
27/09:00am 23.1 SSW 9 11 1015.9 - 0.0 - - - - - - -
27/08:30am 22.4 SSW 9 13 1015.6 - 0.0 - - - - - - -
27/08:00am 21.3 SSW 11 14 1015.5 - 0.0 - - - - - - -
27/07:30am 21.6 SSW 10 13 1015.0 - 0.0 - - - - - - -
27/07:00am 21.8 SSW 11 15 1014.8 - 0.0 - - - - - - -
27/06:30am 21.1 SSW 7 11 1014.2 - 0.0 - - - - - - -
27/06:00am 21.0 SSW 9 12 1014.0 - 0.0 - - - - - - -
27/05:30am 20.8 SSW 8 12 1013.6 - 0.0 - - - - - - -
27/05:00am 21.0 SW 9 13 1013.2 - 0.0 - - - - - - -
27/04:30am 21.2 WSW 8 13 1013.0 - 0.0 - - - - - - -
27/04:00am 21.3 W 8 11 1012.6 - 0.0 - - - - - - -
27/03:30am 21.2 W 7 9 1012.1 - 0.0 - - - - - - -
27/03:00am 21.2 WNW 6 8 1012.0 - 0.0 - - - - - - -
27/02:30am 21.2 WNW 8 10 1011.8 - 0.0 - - - - - - -
27/02:00am 21.3 WNW 7 9 1012.0 - 0.0 - - - - - - -
27/01:30am 21.4 WNW 7 9 1012.5 - 0.0 - - - - - - -
27/01:00am 21.4 WNW 6 9 1012.9 - 0.0 - - - - - - -
27/12:30am 21.2 WNW 6 8 1013.0 - 0.0 - - - - - - -
27/12:00am 21.0 NW 5 7 1013.3 - 0.0 - - - - - - -
 
Date/Time
EST
Temp
°C
Wind Pressure Rain since
9am
mm
Weather Cloud Vis
km
Sea
Height
m
Swell
Dir  Spd
kts
Gust
kts
hPa Trend Height
m
Period
s
Dir
26/11:30pm 21.2 NNW 5 7 1013.4 - 0.0 - - - - - - -
26/11:00pm 21.4 NNW 5 7 1013.6 - 0.0 - - - - - - -
26/10:30pm 21.4 NNW 7 8 1013.6 - 0.0 - - - - - - -
26/10:00pm 21.3 N 7 9 1013.7 - 0.0 - - - - - - -
26/09:30pm 21.3 NNE 5 7 1013.5 - 0.0 - - - - - - -
26/09:00pm 21.2 N 5 9 1013.2 - 0.0 - - - - - - -
26/08:30pm 21.3 N 5 8 1013.1 - 0.0 - - - - - - -
26/08:00pm 21.1 NNE 5 8 1012.9 - 0.0 - - - - - - -
26/07:30pm 20.5 NNE 5 6 1012.8 - 0.0 - - - - - - -
26/07:00pm 20.7 NNE 4 7 1012.5 - 0.0 - - - - - - -
26/06:30pm 20.7 NNE 4 7 1012.3 - 0.0 - - - - - - -
26/06:00pm 20.9 NNE 4 6 1011.8 - 0.0 - - - - - - -
26/05:30pm 21.5 NE 4 6 1011.2 - 0.0 - - - - - - -
26/05:00pm 22.4 NE 5 7 1010.8 - 0.0 - - - - - - -
26/04:30pm 22.6 ENE 6 8 1010.8 - 0.0 - - - - - - -
26/04:00pm 22.9 E 6 9 1010.9 - 0.0 - - - - - - -
26/03:30pm 23.7 ESE 7 9 1010.7 - 0.0 - - - - - - -
26/03:00pm 23.5 SE 7 8 1010.7 - 0.0 - - - - - - -
26/02:30pm 24.0 SE 6 8 1010.9 - 0.0 - - - - - - -
26/02:00pm 23.4 SSE 6 9 1011.5 - 0.0 - - - - - - -
26/01:30pm 23.5 SSE 7 11 1011.8 - 0.0 - - - - - - -
26/01:00pm 23.9 S 8 10 1012.3 - 0.0 - - - - - - -
26/12:30pm 23.7 S 8 11 1012.7 - 0.0 - - - - - - -
26/12:00pm 23.7 SSW 10 14 1013.0 - 0.0 - - - - - - -
26/11:30am 23.6 S 10 14 1013.4 - 0.0 - - - - - - -
26/11:00am 23.5 S 11 16 1013.9 - 0.0 - - - - - - -
26/10:30am 23.7 S 10 15 1014.2 - 0.0 - - - - - - -
26/10:00am 23.7 S 10 15 1014.3 - 0.0 - - - - - - -
26/09:30am 23.7 S 9 15 1014.4 - 0.0 - - - - - - -
26/09:00am 23.1 SSE 9 15 1014.3 - 0.0 - - - - - - -
26/08:30am 23.2 S 9 14 1014.2 - 0.0 - - - - - - -
26/08:00am 23.1 S 10 14 1013.9 - 0.0 - - - - - - -
26/07:30am 22.8 S 10 14 1013.7 - 0.0 - - - - - - -
26/07:00am 22.5 S 10 15 1013.3 - 0.0 - - - - - - -
26/06:30am 22.1 S 11 15 1012.7 - 0.0 - - - - - - -
26/06:00am 21.8 S 10 14 1012.4 - 0.0 - - - - - - -
26/05:30am 21.7 S 10 15 1012.1 - 0.0 - - - - - - -
26/05:00am 21.8 S 11 16 1011.6 - 0.0 - - - - - - -
26/04:30am 22.2 S 14 18 1011.2 - 0.0 - - - - - - -
26/04:00am 21.7 S 10 16 1010.9 - 0.0 - - - - - - -
26/03:30am 21.9 S 12 17 1010.6 - 0.0 - - - - - - -
26/03:00am 22.1 S 13 16 1010.4 - 0.0 - - - - - - -
26/02:30am 21.9 SSW 12 16 1010.4 - 0.0 - - - - - - -
26/02:00am 22.2 SSW 12 16 1010.3 - 0.0 - - - - - - -
26/01:30am 22.4 SSW 11 17 1010.4 - 0.0 - - - - - - -
26/01:00am 22.3 S 11 16 1010.6 - 0.0 - - - - - - -
26/12:30am 22.1 SW 9 13 1010.6 - 0.0 - - - - - - -
26/12:00am 22.6 WSW 7 11 1010.7 - 0.0 - - - - - - -
 
Date/Time
EST
Temp
°C
Wind Pressure Rain since
9am
mm
Weather Cloud Vis
km
Sea
Height
m
Swell
Dir  Spd
kts
Gust
kts
hPa Trend Height
m
Period
s
Dir
25/11:30pm 22.8 W 8 12 1010.8 - 0.0 - - - - - - -
25/11:00pm 22.9 WNW 9 12 1010.7 - 0.0 - - - - - - -
25/10:30pm 23.1 WNW 8 12 1010.8 - 0.0 - - - - - - -
25/10:00pm 23.3 WSW 7 11 1010.8 - 0.0 - - - - - - -
25/09:30pm 23.3 NW 13 17 1010.1 - 0.0 - - - - - - -
25/09:00pm 23.4 NW 12 18 1009.5 - 0.0 - - - - - - -
25/08:30pm 23.5 NW 13 18 1009.4 - 0.0 - - - - - - -
25/08:00pm 23.5 NW 12 18 1009.0 - 0.0 - - - - - - -
25/07:30pm 23.5 NW 12 18 1008.6 - 0.0 - - - - - - -
25/07:00pm 23.6 NNW 13 19 1008.1 - 0.0 - - - - - - -
25/06:30pm 23.7 NNW 14 21 1007.7 - 0.0 - - - - - - -
25/06:00pm 23.7 NNW 15 23 1007.2 - 0.0 - - - - - - -
25/05:30pm 23.8 NNW 17 24 1006.7 - 0.0 - - - - - - -
25/05:00pm 24.1 NNW 16 25 1006.4 - 0.0 - - - - - - -
25/04:30pm 24.3 NNW 17 24 1006.3 - 0.0 - - - - - - -
25/04:00pm 24.6 NNW 17 23 1006.3 - 0.0 - - - - - - -
25/03:30pm 24.9 NNW 16 22 1006.5 - 0.0 - - - - - - -
25/03:07pm 24.9 NNW 15 25 1006.5 - 0.0 - - - - - - -
25/03:00pm 25.1 NNW 15 21 1006.6 - 0.0 - - - - - - -
25/02:30pm 25.0 NNW 14 21 1006.8 - 0.0 - - - - - - -
25/02:00pm 25.7 NNW 13 21 1007.0 - 0.0 - - - - - - -
25/01:30pm 25.4 NNW 13 19 1007.3 - 0.0 - - - - - - -
25/01:00pm 25.8 NNW 14 23 1007.7 - 0.0 - - - - - - -
25/12:30pm 25.8 NNW 13 18 1008.1 - 0.0 - - - - - - -
25/12:00pm 25.7 NNW 14 19 1008.5 - 0.0 - - - - - - -
25/11:30am 25.6 NNW 11 16 1009.2 - 0.0 - - - - - - -
25/11:00am 25.8 NNW 12 17 1009.6 - 0.0 - - - - - - -
25/10:30am 25.2 NNW 11 16 1009.8 - 0.0 - - - - - - -
25/10:00am 24.6 NW 10 14 1010.7 - 0.0 - - - - - - -
25/09:30am 25.0 NW 10 15 1010.7 - 0.0 - - - - - - -
25/09:00am 24.4 NNW 10 15 1010.8 - 0.0 - - - - - - -
25/08:30am 24.6 NW 11 16 1010.8 - 0.0 - - - - - - -
25/08:00am 24.2 NNW 15 19 1010.2 - 0.0 - - - - - - -
25/07:30am 24.0 NNW 15 20 1010.1 - 0.0 - - - - - - -
25/07:00am 23.7 NNW 11 16 1010.2 - 0.0 - - - - - - -
25/06:30am 23.5 NNW 12 15 1009.9 - 0.0 - - - - - - -
25/06:00am 23.2 NNW 11 15 1009.6 - 0.0 - - - - - - -
25/05:30am 23.2 NNW 10 15 1009.5 - 0.0 - - - - - - -
25/05:00am 23.2 NNW 9 14 1009.5 - 0.0 - - - - - - -
25/04:30am 23.1 NNW 10 15 1009.0 - 0.0 - - - - - - -
25/04:00am 23.2 NNW 11 15 1008.7 - 0.0 - - - - - - -
25/03:30am 23.1 NNW 12 16 1008.6 - 0.0 - - - - - - -
25/03:00am 23.1 NNW 13 17 1008.7 - 0.0 - - - - - - -
25/02:30am 23.2 NNW 12 17 1009.0 - 0.0 - - - - - - -
25/02:00am 23.3 NNW 10 16 1009.3 - 0.0 - - - - - - -
25/01:30am 23.2 NNW 13 16 1009.5 - 0.0 - - - - - - -
25/01:00am 23.1 NNW 13 17 1009.6 - 0.0 - - - - - - -
25/12:30am 23.2 NNW 12 16 1010.0 - 0.0 - - - - - - -
25/12:00am 23.2 NNW 11 14 1010.2 - 0.0 - - - - - - -
 
Date/Time
EST
Temp
°C
Wind Pressure Rain since
9am
mm
Weather Cloud Vis
km
Sea
Height
m
Swell
Dir  Spd
kts
Gust
kts
hPa Trend Height
m
Period
s
Dir
24/11:30pm 23.1 N 10 14 1010.1 - 0.0 - - - - - - -
24/11:00pm 23.1 N 13 17 1010.6 - 0.0 - - - - - - -
24/10:30pm 23.1 N 12 15 1010.6 - 0.0 - - - - - - -
24/10:00pm 23.2 N 12 16 1011.0 - 0.0 - - - - - - -
24/09:30pm 23.0 N 10 15 1011.1 - 0.0 - - - - - - -
24/09:00pm 23.0 N 7 11 1010.9 - 0.0 - - - - - - -
24/08:30pm 23.1 N 8 12 1010.8 - 0.0 - - - - - - -
24/08:00pm 23.0 N 8 14 1010.5 - 0.0 - - - - - - -
24/07:30pm 22.9 N 10 15 1010.3 - 0.0 - - - - - - -
24/07:00pm 22.6 N 8 12 1010.1 - 0.0 - - - - - - -
24/06:30pm 22.4 N 8 12 1009.8 - 0.0 - - - - - - -
24/06:00pm 22.4 N 8 12 1009.5 - 0.0 - - - - - - -
24/05:30pm 22.6 N 7 10 1009.3 - 0.0 - - - - - - -
24/05:00pm 23.0 N 7 11 1009.0 - 0.0 - - - - - - -
24/04:30pm 23.5 N 7 10 1009.1 - 0.0 - - - - - - -
24/04:00pm 24.0 NNE 6 9 1009.0 - 0.0 - - - - - - -
24/03:30pm 24.4 N 6 9 1009.2 - 0.0 - - - - - - -
24/03:00pm 24.4 NNW 7 9 1009.5 - 0.0 - - - - - - -
24/02:30pm 24.7 NNW 7 9 1009.9 - 0.0 - - - - - - -
24/02:00pm 24.5 NNW 6 7 1010.4 - 0.0 - - - - - - -
24/01:30pm 24.3 NNW 5 7 1010.8 - 0.0 - - - - - - -
24/01:00pm 24.2 NNW 5 7 1011.1 - 0.0 - - - - - - -
24/12:30pm 24.2 NNW 5 7 1011.6 - 0.0 - - - - - - -
24/12:00pm 23.8 NW 5 7 1012.1 - 0.0 - - - - - - -
24/11:30am 24.1 NNW 5 6 1012.6 - 0.0 - - - - - - -
24/11:00am 24.2 WNW 5 8 1013.1 - 0.0 - - - - - - -
24/10:30am 24.0 W 5 6 1013.4 - 0.0 - - - - - - -

Other Formats:

Comma delimited format used in spreadsheet applications
http://www.bom.gov.au/fwo/IDQ60701/IDQ60701.94388.axf

JavaScript Object Notation format (JSON) in row-major order
http://www.bom.gov.au/fwo/IDQ60701/IDQ60701.94388.json